Aviation Digital Data Service (ADDS)

Output produced by METARs form (0920 UTC 23 July 2019)
found at http://www.aviationweather.gov/metar/data/
 
Forecast for: OIFM (ESFAHAN S B INTL, IR)
Text: TAF OIFM 230530Z 2306/2412 27006KT 9999 FEW040 SCT100
Forecast period: 0600 UTC 23 July 2019 to 1200 UTC 24 July 2019
Forecast type: FROM: standard forecast or significant change
Winds: from the W (270 degrees) at 7 MPH (6 knots; 3.1 m/s)
Visibility: 6 or more miles 10+ km)
Ceiling: at least 12,000 feet AGL
Clouds: few clouds at 4000 feet AGL
scattered clouds at 10000 feet AGL
Weather: no significant weather forecast for this period
Text: TEMPO 2309/2318 06012KT FEW035TCU SCT040
Forecast period: 0900 to 1800 UTC 23 July 2019
Forecast type: TEMPORARY: The following changes expected for less than half the time period
Winds: from the ENE (60 degrees) at 14 MPH (12 knots; 6.2 m/s)
Visibility: missing
Ceiling: at least 12,000 feet AGL
Clouds: few clouds at 3500 feet AGL
scattered clouds at 4000 feet AGL
Weather: no significant weather forecast for this period
Text: TEMPO 2323/2403 4000 HZ NSC
Forecast period: 2300 UTC 23 July 2019 to 0300 UTC 24 July 2019
Forecast type: TEMPORARY: The following changes expected for less than half the time period
Visibility: 2.49 miles (4.01 km)
Ceiling: unknown
Clouds: missing
Weather: HZ  (haze)